sensor_id;sensor_type;location;lat;lon;timestamp;P1;durP1;ratioP1;P2;durP2;ratioP2
38940;SDS011;43236;47.208;7.518;2022-07-05T00:01:54;7.63;;;3.47;;
38940;SDS011;43236;47.208;7.518;2022-07-05T00:04:41;10.10;;;3.60;;
38940;SDS011;43236;47.208;7.518;2022-07-05T00:07:30;11.60;;;3.65;;
38940;SDS011;43236;47.208;7.518;2022-07-05T00:10:17;7.80;;;3.33;;
38940;SDS011;43236;47.208;7.518;2022-07-05T00:13:05;11.73;;;3.38;;
38940;SDS011;43236;47.208;7.518;2022-07-05T00:15:52;5.00;;;3.00;;
38940;SDS011;43236;47.208;7.518;2022-07-05T00:18:39;9.10;;;3.40;;
38940;SDS011;43236;47.208;7.518;2022-07-05T00:21:26;16.60;;;3.65;;
38940;SDS011;43236;47.208;7.518;2022-07-05T00:24:15;7.95;;;3.20;;
38940;SDS011;43236;47.208;7.518;2022-07-05T00:27:02;11.98;;;3.50;;
38940;SDS011;43236;47.208;7.518;2022-07-05T00:29:50;6.95;;;3.22;;
38940;SDS011;43236;47.208;7.518;2022-07-05T00:32:38;7.78;;;2.75;;
38940;SDS011;43236;47.208;7.518;2022-07-05T00:35:26;6.55;;;2.30;;
38940;SDS011;43236;47.208;7.518;2022-07-05T00:38:13;6.50;;;2.40;;
38940;SDS011;43236;47.208;7.518;2022-07-05T00:41:02;5.90;;;2.15;;
38940;SDS011;43236;47.208;7.518;2022-07-05T00:43:53;6.70;;;1.77;;
38940;SDS011;43236;47.208;7.518;2022-07-05T00:46:42;12.90;;;2.40;;
38940;SDS011;43236;47.208;7.518;2022-07-05T00:49:30;4.78;;;2.00;;
38940;SDS011;43236;47.208;7.518;2022-07-05T00:52:17;4.43;;;1.80;;
38940;SDS011;43236;47.208;7.518;2022-07-05T00:55:05;7.65;;;2.00;;
38940;SDS011;43236;47.208;7.518;2022-07-05T00:57:55;9.57;;;2.22;;
38940;SDS011;43236;47.208;7.518;2022-07-05T01:00:43;4.82;;;1.83;;
38940;SDS011;43236;47.208;7.518;2022-07-05T01:03:30;10.02;;;1.90;;
38940;SDS011;43236;47.208;7.518;2022-07-05T01:06:17;6.03;;;1.98;;
38940;SDS011;43236;47.208;7.518;2022-07-05T01:09:06;5.60;;;1.88;;
38940;SDS011;43236;47.208;7.518;2022-07-05T01:11:54;9.02;;;2.20;;
38940;SDS011;43236;47.208;7.518;2022-07-05T01:14:43;7.50;;;2.00;;
38940;SDS011;43236;47.208;7.518;2022-07-05T01:17:31;11.80;;;2.38;;
38940;SDS011;43236;47.208;7.518;2022-07-05T01:20:20;5.65;;;2.05;;
38940;SDS011;43236;47.208;7.518;2022-07-05T01:23:09;13.68;;;2.45;;
38940;SDS011;43236;47.208;7.518;2022-07-05T01:25:56;7.30;;;2.25;;
38940;SDS011;43236;47.208;7.518;2022-07-05T01:28:46;7.75;;;2.00;;
38940;SDS011;43236;47.208;7.518;2022-07-05T01:31:34;4.95;;;2.00;;
38940;SDS011;43236;47.208;7.518;2022-07-05T01:34:23;5.05;;;2.17;;
38940;SDS011;43236;47.208;7.518;2022-07-05T01:37:11;6.40;;;2.20;;
38940;SDS011;43236;47.208;7.518;2022-07-05T01:40:00;6.90;;;2.20;;
38940;SDS011;43236;47.208;7.518;2022-07-05T01:42:49;9.10;;;2.17;;
38940;SDS011;43236;47.208;7.518;2022-07-05T01:45:36;4.65;;;2.20;;
38940;SDS011;43236;47.208;7.518;2022-07-05T01:48:27;6.45;;;2.22;;
38940;SDS011;43236;47.208;7.518;2022-07-05T01:51:16;9.82;;;2.55;;
38940;SDS011;43236;47.208;7.518;2022-07-05T01:54:07;6.80;;;2.20;;
38940;SDS011;43236;47.208;7.518;2022-07-05T01:56:55;11.20;;;2.72;;
38940;SDS011;43236;47.208;7.518;2022-07-05T01:59:44;5.90;;;2.03;;
38940;SDS011;43236;47.208;7.518;2022-07-05T02:02:31;7.72;;;1.92;;
38940;SDS011;43236;47.208;7.518;2022-07-05T02:05:18;9.68;;;2.13;;
38940;SDS011;43236;47.208;7.518;2022-07-05T02:08:05;6.05;;;2.38;;
38940;SDS011;43236;47.208;7.518;2022-07-05T02:10:52;13.88;;;2.42;;
38940;SDS011;43236;47.208;7.518;2022-07-05T02:13:40;7.40;;;2.17;;
38940;SDS011;43236;47.208;7.518;2022-07-05T02:16:28;4.35;;;2.20;;
38940;SDS011;43236;47.208;7.518;2022-07-05T02:19:16;7.88;;;2.20;;
38940;SDS011;43236;47.208;7.518;2022-07-05T02:22:03;15.55;;;2.78;;
38940;SDS011;43236;47.208;7.518;2022-07-05T02:24:50;13.52;;;2.75;;
38940;SDS011;43236;47.208;7.518;2022-07-05T02:27:37;14.25;;;2.35;;
38940;SDS011;43236;47.208;7.518;2022-07-05T02:30:25;9.10;;;2.63;;
38940;SDS011;43236;47.208;7.518;2022-07-05T02:33:13;11.70;;;2.80;;
38940;SDS011;43236;47.208;7.518;2022-07-05T02:36:04;9.50;;;2.38;;
38940;SDS011;43236;47.208;7.518;2022-07-05T02:38:53;11.27;;;2.30;;
38940;SDS011;43236;47.208;7.518;2022-07-05T02:41:40;11.50;;;2.70;;
38940;SDS011;43236;47.208;7.518;2022-07-05T02:44:27;12.75;;;3.20;;
38940;SDS011;43236;47.208;7.518;2022-07-05T02:47:15;13.35;;;2.53;;
38940;SDS011;43236;47.208;7.518;2022-07-05T02:50:03;11.27;;;2.85;;
38940;SDS011;43236;47.208;7.518;2022-07-05T02:52:51;7.32;;;2.90;;
38940;SDS011;43236;47.208;7.518;2022-07-05T02:55:38;7.80;;;2.47;;
38940;SDS011;43236;47.208;7.518;2022-07-05T02:58:25;7.65;;;2.65;;
38940;SDS011;43236;47.208;7.518;2022-07-05T03:01:12;10.57;;;2.80;;
38940;SDS011;43236;47.208;7.518;2022-07-05T03:04:00;6.68;;;2.58;;
38940;SDS011;43236;47.208;7.518;2022-07-05T03:06:47;8.27;;;2.72;;
38940;SDS011;43236;47.208;7.518;2022-07-05T03:09:35;7.82;;;2.72;;
38940;SDS011;43236;47.208;7.518;2022-07-05T03:12:22;4.75;;;2.40;;
38940;SDS011;43236;47.208;7.518;2022-07-05T03:15:09;7.78;;;2.88;;
38940;SDS011;43236;47.208;7.518;2022-07-05T03:17:56;7.00;;;2.70;;
38940;SDS011;43236;47.208;7.518;2022-07-05T03:20:45;8.68;;;2.78;;
38940;SDS011;43236;47.208;7.518;2022-07-05T03:23:32;8.93;;;2.60;;
38940;SDS011;43236;47.208;7.518;2022-07-05T03:26:19;6.90;;;2.72;;
38940;SDS011;43236;47.208;7.518;2022-07-05T03:29:06;7.13;;;2.88;;
38940;SDS011;43236;47.208;7.518;2022-07-05T03:31:53;6.82;;;2.78;;
38940;SDS011;43236;47.208;7.518;2022-07-05T03:34:41;7.07;;;2.78;;
38940;SDS011;43236;47.208;7.518;2022-07-05T03:37:29;5.95;;;2.88;;
38940;SDS011;43236;47.208;7.518;2022-07-05T03:40:16;8.07;;;2.97;;
38940;SDS011;43236;47.208;7.518;2022-07-05T03:43:03;7.43;;;3.15;;
38940;SDS011;43236;47.208;7.518;2022-07-05T03:45:50;6.22;;;3.30;;
38940;SDS011;43236;47.208;7.518;2022-07-05T03:48:39;8.52;;;3.00;;
38940;SDS011;43236;47.208;7.518;2022-07-05T03:51:26;7.80;;;3.13;;
38940;SDS011;43236;47.208;7.518;2022-07-05T03:54:15;11.85;;;2.90;;
38940;SDS011;43236;47.208;7.518;2022-07-05T03:57:02;11.45;;;2.97;;
38940;SDS011;43236;47.208;7.518;2022-07-05T03:59:50;6.68;;;2.63;;
38940;SDS011;43236;47.208;7.518;2022-07-05T04:02:37;5.65;;;2.90;;
38940;SDS011;43236;47.208;7.518;2022-07-05T04:05:24;8.65;;;2.85;;
38940;SDS011;43236;47.208;7.518;2022-07-05T04:08:11;12.68;;;3.03;;
38940;SDS011;43236;47.208;7.518;2022-07-05T04:10:59;6.50;;;2.85;;
38940;SDS011;43236;47.208;7.518;2022-07-05T04:13:46;9.05;;;3.03;;
38940;SDS011;43236;47.208;7.518;2022-07-05T04:16:33;9.68;;;3.15;;
38940;SDS011;43236;47.208;7.518;2022-07-05T04:19:20;6.32;;;2.55;;
38940;SDS011;43236;47.208;7.518;2022-07-05T04:22:11;6.88;;;2.60;;
38940;SDS011;43236;47.208;7.518;2022-07-05T04:24:58;6.70;;;3.22;;
38940;SDS011;43236;47.208;7.518;2022-07-05T04:28:04;6.22;;;2.88;;
38940;SDS011;43236;47.208;7.518;2022-07-05T04:30:52;7.25;;;2.90;;
38940;SDS011;43236;47.208;7.518;2022-07-05T04:33:39;10.75;;;2.95;;
38940;SDS011;43236;47.208;7.518;2022-07-05T04:36:26;4.72;;;2.60;;
38940;SDS011;43236;47.208;7.518;2022-07-05T04:39:13;8.02;;;2.92;;
38940;SDS011;43236;47.208;7.518;2022-07-05T04:42:00;4.40;;;2.92;;
38940;SDS011;43236;47.208;7.518;2022-07-05T04:44:48;5.32;;;3.17;;
38940;SDS011;43236;47.208;7.518;2022-07-05T04:47:35;4.63;;;2.83;;
38940;SDS011;43236;47.208;7.518;2022-07-05T04:50:23;5.75;;;3.00;;
38940;SDS011;43236;47.208;7.518;2022-07-05T04:53:12;5.60;;;3.33;;
38940;SDS011;43236;47.208;7.518;2022-07-05T04:55:59;5.68;;;3.78;;
38940;SDS011;43236;47.208;7.518;2022-07-05T04:58:46;6.53;;;3.30;;
38940;SDS011;43236;47.208;7.518;2022-07-05T05:01:34;6.25;;;3.15;;
38940;SDS011;43236;47.208;7.518;2022-07-05T05:04:21;7.38;;;2.63;;
38940;SDS011;43236;47.208;7.518;2022-07-05T05:07:08;12.68;;;3.30;;
38940;SDS011;43236;47.208;7.518;2022-07-05T05:09:56;10.98;;;3.30;;
38940;SDS011;43236;47.208;7.518;2022-07-05T05:12:43;7.38;;;3.15;;
38940;SDS011;43236;47.208;7.518;2022-07-05T05:15:30;7.38;;;3.30;;
38940;SDS011;43236;47.208;7.518;2022-07-05T05:18:18;6.00;;;3.35;;
38940;SDS011;43236;47.208;7.518;2022-07-05T05:21:09;11.90;;;3.40;;
38940;SDS011;43236;47.208;7.518;2022-07-05T05:23:57;9.00;;;2.72;;
38940;SDS011;43236;47.208;7.518;2022-07-05T05:26:44;7.03;;;2.80;;
38940;SDS011;43236;47.208;7.518;2022-07-05T05:29:31;6.57;;;3.35;;
38940;SDS011;43236;47.208;7.518;2022-07-05T05:32:18;7.82;;;2.70;;
38940;SDS011;43236;47.208;7.518;2022-07-05T05:35:07;12.32;;;3.40;;
38940;SDS011;43236;47.208;7.518;2022-07-05T05:37:55;5.80;;;3.17;;
38940;SDS011;43236;47.208;7.518;2022-07-05T05:40:42;7.32;;;3.10;;
38940;SDS011;43236;47.208;7.518;2022-07-05T05:43:30;7.30;;;2.80;;
38940;SDS011;43236;47.208;7.518;2022-07-05T05:46:17;7.88;;;3.25;;
38940;SDS011;43236;47.208;7.518;2022-07-05T05:49:04;8.20;;;3.00;;
38940;SDS011;43236;47.208;7.518;2022-07-05T05:51:52;7.03;;;2.80;;
38940;SDS011;43236;47.208;7.518;2022-07-05T05:54:39;5.43;;;3.13;;
38940;SDS011;43236;47.208;7.518;2022-07-05T05:57:27;10.10;;;3.17;;
38940;SDS011;43236;47.208;7.518;2022-07-05T06:00:14;6.88;;;2.75;;
38940;SDS011;43236;47.208;7.518;2022-07-05T06:03:02;7.25;;;3.00;;
38940;SDS011;43236;47.208;7.518;2022-07-05T06:05:50;11.25;;;2.80;;
38940;SDS011;43236;47.208;7.518;2022-07-05T06:08:38;8.13;;;2.53;;
38940;SDS011;43236;47.208;7.518;2022-07-05T06:11:25;6.22;;;2.80;;
38940;SDS011;43236;47.208;7.518;2022-07-05T06:14:12;6.85;;;2.60;;
38940;SDS011;43236;47.208;7.518;2022-07-05T06:16:59;6.35;;;2.15;;
38940;SDS011;43236;47.208;7.518;2022-07-05T06:19:48;6.22;;;2.15;;
38940;SDS011;43236;47.208;7.518;2022-07-05T06:22:35;4.85;;;1.88;;
38940;SDS011;43236;47.208;7.518;2022-07-05T06:25:23;10.05;;;2.42;;
38940;SDS011;43236;47.208;7.518;2022-07-05T06:28:11;6.47;;;2.40;;
38940;SDS011;43236;47.208;7.518;2022-07-05T06:30:58;8.23;;;2.63;;
38940;SDS011;43236;47.208;7.518;2022-07-05T06:33:45;9.52;;;2.47;;
38940;SDS011;43236;47.208;7.518;2022-07-05T06:36:32;7.07;;;2.28;;
38940;SDS011;43236;47.208;7.518;2022-07-05T06:39:19;8.93;;;2.63;;
38940;SDS011;43236;47.208;7.518;2022-07-05T06:42:08;11.68;;;3.00;;
38940;SDS011;43236;47.208;7.518;2022-07-05T06:44:55;8.48;;;3.83;;
38940;SDS011;43236;47.208;7.518;2022-07-05T06:47:42;8.18;;;3.00;;
38940;SDS011;43236;47.208;7.518;2022-07-05T06:50:30;10.40;;;3.08;;
38940;SDS011;43236;47.208;7.518;2022-07-05T06:53:18;7.15;;;2.70;;
38940;SDS011;43236;47.208;7.518;2022-07-05T06:56:05;10.13;;;3.20;;
38940;SDS011;43236;47.208;7.518;2022-07-05T06:58:54;6.00;;;3.08;;
38940;SDS011;43236;47.208;7.518;2022-07-05T07:01:41;10.88;;;3.42;;
38940;SDS011;43236;47.208;7.518;2022-07-05T07:04:28;7.70;;;2.70;;
38940;SDS011;43236;47.208;7.518;2022-07-05T07:07:15;5.30;;;2.50;;
38940;SDS011;43236;47.208;7.518;2022-07-05T07:10:19;5.50;;;2.72;;
38940;SDS011;43236;47.208;7.518;2022-07-05T07:13:07;5.30;;;3.05;;
38940;SDS011;43236;47.208;7.518;2022-07-05T07:15:55;6.43;;;2.45;;
38940;SDS011;43236;47.208;7.518;2022-07-05T07:18:42;7.82;;;2.78;;
38940;SDS011;43236;47.208;7.518;2022-07-05T07:21:30;11.48;;;3.00;;
38940;SDS011;43236;47.208;7.518;2022-07-05T07:24:17;5.50;;;2.60;;
38940;SDS011;43236;47.208;7.518;2022-07-05T07:27:04;7.90;;;2.60;;
38940;SDS011;43236;47.208;7.518;2022-07-05T07:29:53;6.13;;;2.78;;
38940;SDS011;43236;47.208;7.518;2022-07-05T07:32:41;5.93;;;2.60;;
38940;SDS011;43236;47.208;7.518;2022-07-05T07:35:29;7.03;;;2.72;;
38940;SDS011;43236;47.208;7.518;2022-07-05T07:38:16;6.00;;;2.58;;
38940;SDS011;43236;47.208;7.518;2022-07-05T07:41:03;5.13;;;2.63;;
38940;SDS011;43236;47.208;7.518;2022-07-05T07:43:50;6.32;;;2.88;;
38940;SDS011;43236;47.208;7.518;2022-07-05T07:46:37;10.45;;;2.75;;
38940;SDS011;43236;47.208;7.518;2022-07-05T07:49:26;4.78;;;2.28;;
38940;SDS011;43236;47.208;7.518;2022-07-05T07:52:14;6.78;;;2.38;;
38940;SDS011;43236;47.208;7.518;2022-07-05T07:55:01;7.30;;;2.13;;
38940;SDS011;43236;47.208;7.518;2022-07-05T07:57:48;8.90;;;2.72;;
38940;SDS011;43236;47.208;7.518;2022-07-05T08:00:35;5.80;;;2.00;;
38940;SDS011;43236;47.208;7.518;2022-07-05T08:03:22;3.97;;;1.75;;
38940;SDS011;43236;47.208;7.518;2022-07-05T08:06:11;5.00;;;2.20;;
38940;SDS011;43236;47.208;7.518;2022-07-05T08:08:59;4.80;;;1.90;;
38940;SDS011;43236;47.208;7.518;2022-07-05T08:11:46;4.95;;;1.48;;
38940;SDS011;43236;47.208;7.518;2022-07-05T08:14:34;5.13;;;1.50;;
38940;SDS011;43236;47.208;7.518;2022-07-05T08:17:21;3.53;;;1.48;;
38940;SDS011;43236;47.208;7.518;2022-07-05T08:20:15;3.20;;;1.10;;
38940;SDS011;43236;47.208;7.518;2022-07-05T08:23:21;3.78;;;1.38;;
38940;SDS011;43236;47.208;7.518;2022-07-05T08:26:08;3.20;;;1.40;;
38940;SDS011;43236;47.208;7.518;2022-07-05T08:28:55;4.80;;;2.00;;
38940;SDS011;43236;47.208;7.518;2022-07-05T08:31:44;3.95;;;1.65;;
38940;SDS011;43236;47.208;7.518;2022-07-05T08:34:34;3.65;;;1.60;;
38940;SDS011;43236;47.208;7.518;2022-07-05T08:37:21;2.72;;;1.40;;
38940;SDS011;43236;47.208;7.518;2022-07-05T08:40:10;5.88;;;1.50;;
38940;SDS011;43236;47.208;7.518;2022-07-05T08:42:58;2.95;;;1.27;;
38940;SDS011;43236;47.208;7.518;2022-07-05T08:45:48;3.35;;;1.42;;
38940;SDS011;43236;47.208;7.518;2022-07-05T08:48:36;3.38;;;1.23;;
38940;SDS011;43236;47.208;7.518;2022-07-05T08:51:28;3.40;;;1.20;;
38940;SDS011;43236;47.208;7.518;2022-07-05T08:54:15;6.68;;;1.50;;
38940;SDS011;43236;47.208;7.518;2022-07-05T08:57:05;4.05;;;0.90;;
38940;SDS011;43236;47.208;7.518;2022-07-05T08:59:52;4.75;;;1.30;;
38940;SDS011;43236;47.208;7.518;2022-07-05T09:02:39;4.50;;;1.30;;
38940;SDS011;43236;47.208;7.518;2022-07-05T09:05:26;3.75;;;1.20;;
38940;SDS011;43236;47.208;7.518;2022-07-05T09:08:14;4.57;;;1.10;;
38940;SDS011;43236;47.208;7.518;2022-07-05T09:11:02;9.95;;;1.27;;
38940;SDS011;43236;47.208;7.518;2022-07-05T09:13:51;3.13;;;1.00;;
38940;SDS011;43236;47.208;7.518;2022-07-05T09:16:38;4.65;;;1.20;;
38940;SDS011;43236;47.208;7.518;2022-07-05T09:19:26;2.95;;;1.23;;
38940;SDS011;43236;47.208;7.518;2022-07-05T09:22:15;4.10;;;1.60;;
38940;SDS011;43236;47.208;7.518;2022-07-05T09:25:12;6.63;;;1.60;;
38940;SDS011;43236;47.208;7.518;2022-07-05T09:28:01;5.47;;;1.23;;
38940;SDS011;43236;47.208;7.518;2022-07-05T09:30:52;5.47;;;1.20;;
38940;SDS011;43236;47.208;7.518;2022-07-05T09:33:43;3.50;;;1.35;;
38940;SDS011;43236;47.208;7.518;2022-07-05T09:36:48;3.65;;;1.50;;
38940;SDS011;43236;47.208;7.518;2022-07-05T09:39:38;5.35;;;1.60;;
38940;SDS011;43236;47.208;7.518;2022-07-05T09:42:26;5.28;;;1.60;;
38940;SDS011;43236;47.208;7.518;2022-07-05T09:45:13;3.25;;;1.63;;
38940;SDS011;43236;47.208;7.518;2022-07-05T09:48:10;6.57;;;1.65;;
38940;SDS011;43236;47.208;7.518;2022-07-05T09:51:04;3.33;;;1.63;;
38940;SDS011;43236;47.208;7.518;2022-07-05T09:53:56;4.38;;;1.60;;
38940;SDS011;43236;47.208;7.518;2022-07-05T09:56:45;5.57;;;1.70;;
38940;SDS011;43236;47.208;7.518;2022-07-05T09:59:33;4.30;;;1.40;;
38940;SDS011;43236;47.208;7.518;2022-07-05T10:02:24;3.45;;;0.90;;
38940;SDS011;43236;47.208;7.518;2022-07-05T10:05:23;4.55;;;1.27;;
38940;SDS011;43236;47.208;7.518;2022-07-05T10:08:11;4.20;;;0.90;;
38940;SDS011;43236;47.208;7.518;2022-07-05T10:10:59;3.60;;;0.90;;
38940;SDS011;43236;47.208;7.518;2022-07-05T10:13:47;6.13;;;1.15;;
38940;SDS011;43236;47.208;7.518;2022-07-05T10:16:35;1.60;;;0.82;;
38940;SDS011;43236;47.208;7.518;2022-07-05T10:19:23;2.35;;;0.90;;
38940;SDS011;43236;47.208;7.518;2022-07-05T10:22:16;2.28;;;1.05;;
38940;SDS011;43236;47.208;7.518;2022-07-05T10:25:03;3.67;;;0.80;;
38940;SDS011;43236;47.208;7.518;2022-07-05T10:27:52;1.90;;;0.50;;
38940;SDS011;43236;47.208;7.518;2022-07-05T10:30:40;2.72;;;0.77;;
38940;SDS011;43236;47.208;7.518;2022-07-05T10:33:30;3.75;;;0.70;;
38940;SDS011;43236;47.208;7.518;2022-07-05T10:36:18;2.63;;;0.73;;
38940;SDS011;43236;47.208;7.518;2022-07-05T10:39:07;6.03;;;0.70;;
38940;SDS011;43236;47.208;7.518;2022-07-05T10:41:55;2.97;;;0.68;;
38940;SDS011;43236;47.208;7.518;2022-07-05T10:44:43;3.20;;;0.70;;
38940;SDS011;43236;47.208;7.518;2022-07-05T10:47:30;2.75;;;0.75;;
38940;SDS011;43236;47.208;7.518;2022-07-05T10:50:17;6.20;;;0.80;;
38940;SDS011;43236;47.208;7.518;2022-07-05T10:53:04;1.98;;;0.70;;
38940;SDS011;43236;47.208;7.518;2022-07-05T10:55:54;1.25;;;0.70;;
38940;SDS011;43236;47.208;7.518;2022-07-05T10:58:43;1.98;;;0.70;;
38940;SDS011;43236;47.208;7.518;2022-07-05T11:01:32;1.90;;;0.80;;
38940;SDS011;43236;47.208;7.518;2022-07-05T11:13:57;4.20;;;0.98;;
38940;SDS011;43236;47.208;7.518;2022-07-05T11:16:46;2.22;;;0.77;;
38940;SDS011;43236;47.208;7.518;2022-07-05T11:19:33;1.23;;;0.77;;
38940;SDS011;43236;47.208;7.518;2022-07-05T11:22:21;2.40;;;0.98;;
38940;SDS011;43236;47.208;7.518;2022-07-05T11:25:08;2.47;;;0.80;;
38940;SDS011;43236;47.208;7.518;2022-07-05T11:28:04;2.38;;;0.73;;
38940;SDS011;43236;47.208;7.518;2022-07-05T11:31:05;4.07;;;0.85;;
38940;SDS011;43236;47.208;7.518;2022-07-05T11:33:52;3.45;;;0.90;;
38940;SDS011;43236;47.208;7.518;2022-07-05T11:36:40;2.88;;;1.00;;
38940;SDS011;43236;47.208;7.518;2022-07-05T11:39:27;3.25;;;0.80;;
38940;SDS011;43236;47.208;7.518;2022-07-05T11:42:19;2.08;;;0.82;;
38940;SDS011;43236;47.208;7.518;2022-07-05T11:45:10;2.45;;;1.02;;
38940;SDS011;43236;47.208;7.518;2022-07-05T11:47:58;2.60;;;0.95;;
38940;SDS011;43236;47.208;7.518;2022-07-05T11:50:45;3.22;;;1.00;;
38940;SDS011;43236;47.208;7.518;2022-07-05T11:53:34;4.95;;;0.80;;
38940;SDS011;43236;47.208;7.518;2022-07-05T11:56:22;3.88;;;1.05;;
38940;SDS011;43236;47.208;7.518;2022-07-05T12:02:16;1.45;;;0.80;;
38940;SDS011;43236;47.208;7.518;2022-07-05T12:05:03;3.15;;;0.90;;
38940;SDS011;43236;47.208;7.518;2022-07-05T12:07:51;2.45;;;1.00;;
38940;SDS011;43236;47.208;7.518;2022-07-05T12:10:45;3.03;;;0.85;;
38940;SDS011;43236;47.208;7.518;2022-07-05T12:13:50;3.70;;;0.85;;
38940;SDS011;43236;47.208;7.518;2022-07-05T12:16:37;2.25;;;0.90;;
38940;SDS011;43236;47.208;7.518;2022-07-05T12:19:26;2.25;;;0.68;;
38940;SDS011;43236;47.208;7.518;2022-07-05T12:22:15;1.98;;;0.85;;
38940;SDS011;43236;47.208;7.518;2022-07-05T12:25:13;2.05;;;0.75;;
38940;SDS011;43236;47.208;7.518;2022-07-05T12:28:04;2.72;;;0.93;;
38940;SDS011;43236;47.208;7.518;2022-07-05T12:33:44;2.00;;;0.70;;
38940;SDS011;43236;47.208;7.518;2022-07-05T12:36:32;4.97;;;0.70;;
38940;SDS011;43236;47.208;7.518;2022-07-05T12:39:20;2.33;;;0.93;;
38940;SDS011;43236;47.208;7.518;2022-07-05T12:42:07;4.97;;;0.80;;
38940;SDS011;43236;47.208;7.518;2022-07-05T12:45:05;2.78;;;0.90;;
38940;SDS011;43236;47.208;7.518;2022-07-05T12:47:55;3.60;;;0.90;;
38940;SDS011;43236;47.208;7.518;2022-07-05T12:50:44;1.85;;;0.85;;
38940;SDS011;43236;47.208;7.518;2022-07-05T12:53:34;2.60;;;1.02;;
38940;SDS011;43236;47.208;7.518;2022-07-05T12:56:47;1.65;;;0.80;;
38940;SDS011;43236;47.208;7.518;2022-07-05T12:59:56;4.47;;;1.10;;
38940;SDS011;43236;47.208;7.518;2022-07-05T13:02:45;2.95;;;0.75;;
38940;SDS011;43236;47.208;7.518;2022-07-05T13:05:34;3.30;;;0.95;;
38940;SDS011;43236;47.208;7.518;2022-07-05T13:08:26;2.80;;;1.08;;
38940;SDS011;43236;47.208;7.518;2022-07-05T13:14:20;1.50;;;0.90;;
38940;SDS011;43236;47.208;7.518;2022-07-05T13:17:08;1.08;;;0.70;;
38940;SDS011;43236;47.208;7.518;2022-07-05T13:19:56;3.95;;;1.15;;
38940;SDS011;43236;47.208;7.518;2022-07-05T13:22:45;2.92;;;1.00;;
38940;SDS011;43236;47.208;7.518;2022-07-05T13:25:32;3.00;;;0.90;;
38940;SDS011;43236;47.208;7.518;2022-07-05T13:28:22;3.05;;;0.90;;
38940;SDS011;43236;47.208;7.518;2022-07-05T13:31:09;2.05;;;0.70;;
38940;SDS011;43236;47.208;7.518;2022-07-05T13:33:57;2.63;;;0.80;;
38940;SDS011;43236;47.208;7.518;2022-07-05T13:36:48;2.83;;;0.77;;
38940;SDS011;43236;47.208;7.518;2022-07-05T13:39:35;1.90;;;0.98;;
38940;SDS011;43236;47.208;7.518;2022-07-05T13:42:25;2.50;;;0.90;;
38940;SDS011;43236;47.208;7.518;2022-07-05T13:45:14;4.85;;;0.80;;
38940;SDS011;43236;47.208;7.518;2022-07-05T13:48:01;3.22;;;0.93;;
38940;SDS011;43236;47.208;7.518;2022-07-05T13:50:48;4.20;;;0.98;;
38940;SDS011;43236;47.208;7.518;2022-07-05T13:53:35;4.57;;;0.93;;
38940;SDS011;43236;47.208;7.518;2022-07-05T13:56:22;2.72;;;0.80;;
38940;SDS011;43236;47.208;7.518;2022-07-05T13:59:11;4.13;;;0.93;;
38940;SDS011;43236;47.208;7.518;2022-07-05T14:01:59;4.82;;;1.02;;
38940;SDS011;43236;47.208;7.518;2022-07-05T14:04:46;4.95;;;0.90;;
38940;SDS011;43236;47.208;7.518;2022-07-05T14:07:33;4.32;;;1.08;;
38940;SDS011;43236;47.208;7.518;2022-07-05T14:10:20;3.70;;;0.73;;
38940;SDS011;43236;47.208;7.518;2022-07-05T14:13:07;5.07;;;1.10;;
38940;SDS011;43236;47.208;7.518;2022-07-05T14:15:55;1.98;;;0.90;;
38940;SDS011;43236;47.208;7.518;2022-07-05T14:18:43;3.90;;;1.00;;
38940;SDS011;43236;47.208;7.518;2022-07-05T14:21:30;3.45;;;1.00;;
38940;SDS011;43236;47.208;7.518;2022-07-05T14:24:17;2.33;;;0.90;;
38940;SDS011;43236;47.208;7.518;2022-07-05T14:27:04;1.95;;;0.80;;
38940;SDS011;43236;47.208;7.518;2022-07-05T14:29:52;2.90;;;0.77;;
38940;SDS011;43236;47.208;7.518;2022-07-05T14:32:39;1.92;;;0.85;;
38940;SDS011;43236;47.208;7.518;2022-07-05T14:35:31;1.48;;;0.77;;
38940;SDS011;43236;47.208;7.518;2022-07-05T14:38:18;3.78;;;0.80;;
38940;SDS011;43236;47.208;7.518;2022-07-05T14:41:06;2.10;;;0.70;;
38940;SDS011;43236;47.208;7.518;2022-07-05T14:43:53;4.10;;;0.90;;
38940;SDS011;43236;47.208;7.518;2022-07-05T14:46:40;3.92;;;0.93;;
38940;SDS011;43236;47.208;7.518;2022-07-05T14:49:27;2.05;;;0.80;;
38940;SDS011;43236;47.208;7.518;2022-07-05T14:52:15;6.38;;;0.88;;
38940;SDS011;43236;47.208;7.518;2022-07-05T14:55:03;6.68;;;0.90;;
38940;SDS011;43236;47.208;7.518;2022-07-05T14:57:51;4.53;;;1.00;;
38940;SDS011;43236;47.208;7.518;2022-07-05T15:00:38;2.22;;;0.63;;
38940;SDS011;43236;47.208;7.518;2022-07-05T15:03:25;2.05;;;0.70;;
38940;SDS011;43236;47.208;7.518;2022-07-05T15:06:12;4.65;;;0.88;;
38940;SDS011;43236;47.208;7.518;2022-07-05T15:09:00;9.57;;;1.00;;
38940;SDS011;43236;47.208;7.518;2022-07-05T15:11:48;2.85;;;0.65;;
38940;SDS011;43236;47.208;7.518;2022-07-05T15:14:35;2.05;;;0.77;;
38940;SDS011;43236;47.208;7.518;2022-07-05T15:17:22;1.75;;;0.60;;
38940;SDS011;43236;47.208;7.518;2022-07-05T15:20:09;3.42;;;0.60;;
38940;SDS011;43236;47.208;7.518;2022-07-05T15:22:57;1.70;;;0.70;;
38940;SDS011;43236;47.208;7.518;2022-07-05T15:25:45;2.33;;;0.80;;
38940;SDS011;43236;47.208;7.518;2022-07-05T15:28:33;2.38;;;0.80;;
38940;SDS011;43236;47.208;7.518;2022-07-05T15:31:20;4.43;;;0.82;;
38940;SDS011;43236;47.208;7.518;2022-07-05T15:34:07;3.40;;;0.65;;
38940;SDS011;43236;47.208;7.518;2022-07-05T15:36:54;4.85;;;1.10;;
38940;SDS011;43236;47.208;7.518;2022-07-05T15:39:41;6.40;;;0.82;;
38940;SDS011;43236;47.208;7.518;2022-07-05T15:42:29;2.13;;;0.63;;
38940;SDS011;43236;47.208;7.518;2022-07-05T15:45:17;3.25;;;0.77;;
38940;SDS011;43236;47.208;7.518;2022-07-05T15:48:04;1.98;;;0.68;;
38940;SDS011;43236;47.208;7.518;2022-07-05T15:50:51;2.83;;;0.63;;
38940;SDS011;43236;47.208;7.518;2022-07-05T15:53:40;1.55;;;0.75;;
38940;SDS011;43236;47.208;7.518;2022-07-05T15:56:27;1.30;;;0.50;;
38940;SDS011;43236;47.208;7.518;2022-07-05T15:59:15;5.93;;;0.85;;
38940;SDS011;43236;47.208;7.518;2022-07-05T16:02:02;2.65;;;0.80;;
38940;SDS011;43236;47.208;7.518;2022-07-05T16:04:50;6.55;;;0.85;;
38940;SDS011;43236;47.208;7.518;2022-07-05T16:07:37;1.30;;;0.70;;
38940;SDS011;43236;47.208;7.518;2022-07-05T16:10:24;2.63;;;0.60;;
38940;SDS011;43236;47.208;7.518;2022-07-05T16:13:11;2.42;;;0.60;;
38940;SDS011;43236;47.208;7.518;2022-07-05T16:16:02;1.33;;;0.45;;
38940;SDS011;43236;47.208;7.518;2022-07-05T16:18:58;2.42;;;0.60;;
38940;SDS011;43236;47.208;7.518;2022-07-05T16:21:47;2.58;;;0.60;;
38940;SDS011;43236;47.208;7.518;2022-07-05T16:24:35;2.50;;;0.50;;
38940;SDS011;43236;47.208;7.518;2022-07-05T16:27:22;1.02;;;0.35;;
38940;SDS011;43236;47.208;7.518;2022-07-05T16:30:09;1.13;;;0.50;;
38940;SDS011;43236;47.208;7.518;2022-07-05T16:32:58;2.05;;;0.68;;
38940;SDS011;43236;47.208;7.518;2022-07-05T16:35:46;2.33;;;0.43;;
38940;SDS011;43236;47.208;7.518;2022-07-05T16:38:33;1.58;;;0.60;;
38940;SDS011;43236;47.208;7.518;2022-07-05T16:41:21;4.47;;;0.60;;
38940;SDS011;43236;47.208;7.518;2022-07-05T16:44:08;1.15;;;0.45;;
38940;SDS011;43236;47.208;7.518;2022-07-05T16:46:55;1.60;;;0.52;;
38940;SDS011;43236;47.208;7.518;2022-07-05T16:49:44;5.82;;;0.70;;
38940;SDS011;43236;47.208;7.518;2022-07-05T16:52:31;1.48;;;0.40;;
38940;SDS011;43236;47.208;7.518;2022-07-05T16:55:18;2.33;;;0.40;;
38940;SDS011;43236;47.208;7.518;2022-07-05T16:58:06;1.77;;;0.57;;
38940;SDS011;43236;47.208;7.518;2022-07-05T17:00:53;0.73;;;0.40;;
38940;SDS011;43236;47.208;7.518;2022-07-05T17:03:40;4.95;;;0.50;;
38940;SDS011;43236;47.208;7.518;2022-07-05T17:06:29;2.10;;;0.43;;
38940;SDS011;43236;47.208;7.518;2022-07-05T17:09:16;0.55;;;0.30;;
38940;SDS011;43236;47.208;7.518;2022-07-05T17:12:04;2.08;;;0.32;;